createdAt,value
2017-11-23T00:00:24.026Z,996.19
2017-11-23T00:01:34.099Z,996.17
2017-11-23T00:02:43.638Z,996.19
2017-11-23T00:03:53.723Z,996.18
2017-11-23T00:05:03.529Z,996.26
2017-11-23T00:06:13.587Z,996.27
2017-11-23T00:07:23.651Z,996.3
2017-11-23T00:08:33.703Z,996.28
2017-11-23T00:09:43.285Z,996.31
2017-11-23T00:10:53.090Z,996.29
2017-11-23T00:12:02.635Z,996.3
2017-11-23T00:13:12.710Z,996.35
2017-11-23T00:14:22.781Z,996.33
2017-11-23T00:15:32.575Z,996.29
2017-11-23T00:16:42.374Z,996.31
2017-11-23T00:17:52.174Z,996.3
2017-11-23T00:19:02.245Z,996.31
2017-11-23T00:20:12.363Z,996.33
2017-11-23T00:21:22.227Z,996.34
2017-11-23T00:22:31.781Z,996.39
2017-11-23T00:23:41.585Z,996.32
2017-11-23T00:24:51.669Z,996.31
2017-11-23T00:26:01.747Z,996.25
2017-11-23T00:27:11.833Z,996.29
2017-11-23T00:28:21.921Z,996.22
2017-11-23T00:29:31.712Z,996.21
2017-11-23T00:30:41.521Z,996.23
2017-11-23T00:31:51.344Z,996.22
2017-11-23T00:33:00.880Z,996.2
2017-11-23T00:34:10.691Z,996.21
2017-11-23T00:35:20.773Z,996.22
2017-11-23T00:36:30.582Z,996.23
2017-11-23T00:37:40.121Z,996.2
2017-11-23T00:38:49.929Z,996.17
2017-11-23T00:40:00.238Z,996.19
2017-11-23T00:41:10.048Z,996.17
2017-11-23T00:42:32.890Z,996.22
2017-11-23T00:43:42.968Z,996.22
2017-11-23T00:44:52.771Z,996.22
2017-11-23T00:46:02.881Z,996.28
2017-11-23T00:47:12.690Z,996.23
2017-11-23T00:48:22.530Z,996.27
2017-11-23T00:49:32.705Z,996.21
2017-11-23T00:50:42.799Z,996.24
2017-11-23T00:51:52.613Z,996.27
2017-11-23T00:53:02.680Z,996.25
2017-11-23T00:54:12.221Z,996.25
2017-11-23T00:55:22.306Z,996.25
2017-11-23T00:56:31.861Z,996.25
2017-11-23T00:57:41.706Z,996.25
2017-11-23T00:58:51.520Z,996.27
2017-11-23T01:00:01.608Z,996.3
2017-11-23T01:01:11.467Z,996.28
2017-11-23T01:02:21.552Z,996.32
2017-11-23T01:03:31.353Z,996.34
2017-11-23T01:04:41.434Z,996.34
2017-11-23T01:05:51.502Z,996.35
2017-11-23T01:07:01.576Z,996.31
2017-11-23T01:08:11.579Z,996.29
2017-11-23T01:09:21.385Z,996.26
2017-11-23T01:10:30.931Z,996.28
2017-11-23T01:11:40.479Z,996.27
2017-11-23T01:12:50.045Z,996.29
2017-11-23T01:14:00.107Z,996.3
2017-11-23T01:15:10.184Z,996.3
2017-11-23T01:16:20.282Z,996.35
2017-11-23T01:17:30.361Z,996.32
2017-11-23T01:18:40.229Z,996.3
2017-11-23T01:19:50.019Z,996.32
2017-11-23T01:21:00.087Z,996.35
2017-11-23T01:22:10.156Z,996.31
2017-11-23T01:23:20.222Z,996.3
2017-11-23T01:24:29.517Z,996.33
2017-11-23T01:25:39.590Z,996.31
2017-11-23T01:26:49.420Z,996.3
2017-11-23T01:27:58.966Z,996.29
2017-11-23T01:29:09.032Z,996.26
2017-11-23T01:30:19.156Z,996.24
2017-11-23T01:31:29.244Z,996.19
2017-11-23T01:32:39.040Z,996.24
2017-11-23T01:33:49.332Z,996.26
2017-11-23T01:34:59.147Z,996.27
2017-11-23T01:36:09.281Z,996.29
2017-11-23T01:37:19.077Z,996.31
2017-11-23T01:38:29.131Z,996.28
2017-11-23T01:39:38.672Z,996.27
2017-11-23T01:40:48.735Z,996.26
2017-11-23T01:41:58.809Z,996.3
2017-11-23T01:43:08.623Z,996.31
2017-11-23T01:44:18.713Z,996.27
2017-11-23T01:45:28.527Z,996.32
2017-11-23T01:46:38.600Z,996.28
2017-11-23T01:47:48.681Z,996.31
2017-11-23T01:48:58.752Z,996.23
2017-11-23T01:50:08.641Z,996.21
2017-11-23T01:51:18.508Z,996.16
2017-11-23T01:52:28.044Z,996.16
2017-11-23T01:53:38.107Z,996.14
2017-11-23T01:54:47.370Z,996.19
2017-11-23T01:55:57.434Z,996.22
2017-11-23T01:57:07.563Z,996.19
2017-11-23T01:58:17.373Z,996.18
2017-11-23T01:59:26.928Z,996.16
2017-11-23T02:00:37.011Z,996.19
2017-11-23T02:01:47.105Z,996.17
2017-11-23T02:02:56.966Z,996.17
2017-11-23T02:04:07.064Z,996.15
2017-11-23T02:05:17.170Z,996.13
2017-11-23T02:06:27.245Z,996.08
2017-11-23T02:07:36.789Z,996.04
2017-11-23T02:08:46.595Z,996.08
2017-11-23T02:09:56.403Z,996.02
2017-11-23T02:11:06.219Z,996.04
2017-11-23T02:12:15.768Z,996.02
2017-11-23T02:13:25.856Z,995.99
2017-11-23T02:14:35.658Z,996.01
2017-11-23T02:15:45.727Z,996.07
2017-11-23T02:16:55.827Z,996.05
2017-11-23T02:18:05.887Z,996.04
2017-11-23T02:19:15.961Z,996.03
2017-11-23T02:20:26.086Z,995.98
2017-11-23T02:21:36.163Z,996.06
2017-11-23T02:22:45.965Z,995.99
2017-11-23T02:23:55.512Z,995.99
2017-11-23T02:25:05.589Z,996.01
2017-11-23T02:26:15.132Z,996.03
2017-11-23T02:27:25.198Z,996
2017-11-23T02:28:35.008Z,996.03
2017-11-23T02:29:44.819Z,996.05
2017-11-23T02:30:54.941Z,996.04
2017-11-23T02:32:04.765Z,996.11
2017-11-23T02:33:14.851Z,996.07
2017-11-23T02:34:24.939Z,996.07
2017-11-23T02:35:35.015Z,996.11
2017-11-23T02:36:44.560Z,996.09
2017-11-23T02:37:54.106Z,996.11
2017-11-23T02:39:04.191Z,996.1
2017-11-23T02:40:14.028Z,996.1
2017-11-23T02:41:24.120Z,996.1
2017-11-23T02:42:34.245Z,996.11
2017-11-23T02:43:44.334Z,996.16
2017-11-23T02:44:54.146Z,996.09
2017-11-23T02:46:03.971Z,996.17
2017-11-23T02:47:14.038Z,996.15
2017-11-23T02:48:24.209Z,996.14
2017-11-23T02:49:34.035Z,996.19
2017-11-23T02:50:44.103Z,996.17
2017-11-23T02:51:53.640Z,996.19
2017-11-23T02:53:03.477Z,996.22
2017-11-23T02:54:13.569Z,996.24
2017-11-23T02:55:23.380Z,996.23
2017-11-23T02:56:33.187Z,996.21
2017-11-23T02:57:43.003Z,996.24
2017-11-23T02:58:52.815Z,996.22
2017-11-23T03:00:02.628Z,996.24
2017-11-23T03:01:12.711Z,996.23
2017-11-23T03:02:22.500Z,996.22
2017-11-23T03:33:56.658Z,996.03
2017-11-23T03:35:06.453Z,995.99
2017-11-23T03:36:16.511Z,995.96
2017-11-23T03:37:26.298Z,995.96
2017-11-23T03:38:37.345Z,995.97
2017-11-23T03:39:47.462Z,995.98
2017-11-23T03:40:57.517Z,995.94
2017-11-23T03:42:07.311Z,995.96
2017-11-23T03:43:17.391Z,996.01
2017-11-23T03:44:27.459Z,996.01
2017-11-23T03:45:37.256Z,996.01
2017-11-23T03:46:46.785Z,996
2017-11-23T03:47:56.858Z,995.97
2017-11-23T03:49:06.681Z,995.99
2017-11-23T03:50:16.774Z,995.97
2017-11-23T03:51:26.576Z,995.95
2017-11-23T03:52:36.645Z,995.9
2017-11-23T03:53:46.202Z,995.89
2017-11-23T03:54:56.801Z,995.9
2017-11-23T03:56:06.895Z,995.85
2017-11-23T03:57:16.764Z,995.84
2017-11-23T03:58:26.851Z,995.84
2017-11-23T03:59:36.928Z,995.83
2017-11-23T04:00:46.990Z,995.86
2017-11-23T04:01:57.561Z,995.89
2017-11-23T04:03:07.633Z,995.89
2017-11-23T04:04:17.429Z,995.9
2017-11-23T04:05:27.258Z,995.84
2017-11-23T04:06:37.060Z,995.85
2017-11-23T04:07:47.128Z,995.88
2017-11-23T04:08:57.199Z,995.91
2017-11-23T04:10:07.001Z,995.9
2017-11-23T04:11:16.814Z,995.93
2017-11-23T04:12:26.624Z,995.95
2017-11-23T04:13:36.175Z,995.93
2017-11-23T04:14:46.251Z,995.93
2017-11-23T04:15:55.802Z,995.93
2017-11-23T04:17:05.865Z,995.95
2017-11-23T04:18:15.944Z,995.94
2017-11-23T04:19:27.121Z,995.93
2017-11-23T04:20:36.702Z,995.95
2017-11-23T04:21:46.518Z,995.91
2017-11-23T04:22:56.336Z,995.92
2017-11-23T04:24:06.404Z,995.93
2017-11-23T04:25:15.960Z,995.96
2017-11-23T04:26:26.091Z,996
2017-11-23T04:27:36.178Z,996
2017-11-23T04:28:46.241Z,996.04
2017-11-23T04:29:56.057Z,996.05
2017-11-23T04:31:05.870Z,996.04
2017-11-23T04:32:15.937Z,996.09
2017-11-23T04:33:25.476Z,996.08
2017-11-23T04:34:35.545Z,996.1
2017-11-23T04:35:45.614Z,996.09
2017-11-23T04:36:55.678Z,996.1
2017-11-23T04:38:05.486Z,996.09
2017-11-23T04:39:15.549Z,996.14
2017-11-23T04:40:25.618Z,996.14
2017-11-23T04:41:35.690Z,996.13
2017-11-23T04:42:45.495Z,996.13
2017-11-23T04:43:55.584Z,996.09
2017-11-23T04:45:05.650Z,996.1
2017-11-23T04:46:15.731Z,996.08
2017-11-23T04:47:25.546Z,996.14
2017-11-23T04:48:35.341Z,996.1
2017-11-23T04:49:45.421Z,996.15
2017-11-23T04:50:55.514Z,996.14
2017-11-23T04:52:05.040Z,996.15
2017-11-23T04:53:15.118Z,996.19
2017-11-23T04:54:24.926Z,996.18
2017-11-23T04:55:35.055Z,996.17
2017-11-23T04:56:45.154Z,996.2
2017-11-23T04:57:55.221Z,996.2
2017-11-23T04:59:05.012Z,996.19
2017-11-23T05:00:15.080Z,996.21
2017-11-23T05:01:25.200Z,996.22
2017-11-23T05:02:35.014Z,996.24
2017-11-23T05:03:44.833Z,996.23
2017-11-23T05:04:54.902Z,996.21
2017-11-23T05:06:04.726Z,996.25
2017-11-23T05:07:14.261Z,996.25
2017-11-23T05:08:24.085Z,996.28
2017-11-23T05:09:33.615Z,996.31
2017-11-23T05:10:43.699Z,996.29
2017-11-23T05:11:53.781Z,996.3
2017-11-23T05:13:03.637Z,996.29
2017-11-23T05:14:13.456Z,996.3
2017-11-23T05:15:23.568Z,996.35
2017-11-23T05:16:33.369Z,996.31
2017-11-23T05:17:42.919Z,996.33
2017-11-23T05:18:52.987Z,996.32
2017-11-23T05:20:02.784Z,996.35
2017-11-23T05:21:12.591Z,996.29
2017-11-23T05:22:22.400Z,996.33
2017-11-23T05:23:31.943Z,996.3
2017-11-23T05:24:42.031Z,996.3
2017-11-23T05:25:52.102Z,996.28
2017-11-23T05:27:02.179Z,996.25
2017-11-23T05:28:11.455Z,996.26
2017-11-23T05:29:21.527Z,996.3
2017-11-23T05:30:31.612Z,996.3
2017-11-23T05:31:41.425Z,996.35
2017-11-23T05:32:50.697Z,996.29
2017-11-23T05:34:00.510Z,996.32
2017-11-23T05:35:10.612Z,996.32
2017-11-23T05:36:20.753Z,996.35
2017-11-23T05:37:30.029Z,996.31
2017-11-23T05:38:39.838Z,996.34
2017-11-23T05:39:49.642Z,996.38
2017-11-23T05:40:59.713Z,996.44
2017-11-23T05:42:09.532Z,996.47
2017-11-23T05:43:19.332Z,996.52
2017-11-23T05:44:28.869Z,996.53
2017-11-23T05:45:38.947Z,996.56
2017-11-23T05:46:48.762Z,996.58
2017-11-23T05:47:58.610Z,996.57
2017-11-23T05:49:08.728Z,996.61
2017-11-23T05:50:18.523Z,996.58
2017-11-23T05:51:28.084Z,996.62
2017-11-23T05:52:37.891Z,996.6
2017-11-23T05:53:47.698Z,996.62
2017-11-23T05:54:57.519Z,996.61
2017-11-23T05:56:07.593Z,996.59
2017-11-23T05:57:16.874Z,996.56
2017-11-23T05:58:27.660Z,996.53
2017-11-23T05:59:37.717Z,996.53
2017-11-23T06:00:47.278Z,996.53
2017-11-23T06:01:56.817Z,996.52
2017-11-23T06:03:06.619Z,996.53
2017-11-23T06:04:16.438Z,996.5
2017-11-23T06:05:26.292Z,996.51
2017-11-23T06:06:36.095Z,996.52
2017-11-23T06:07:45.904Z,996.54
2017-11-23T06:08:56.006Z,996.55
2017-11-23T06:10:05.820Z,996.49
2017-11-23T06:11:15.910Z,996.47
2017-11-23T06:12:25.715Z,996.49
2017-11-23T06:13:35.517Z,996.47
2017-11-23T06:14:45.334Z,996.52
2017-11-23T06:15:55.132Z,996.5
2017-11-23T06:17:05.242Z,996.47
2017-11-23T06:18:15.307Z,996.48
2017-11-23T06:19:25.123Z,996.52
2017-11-23T06:20:35.229Z,996.48
2017-11-23T06:21:45.326Z,996.47
2017-11-23T06:22:55.456Z,996.48
2017-11-23T06:24:05.270Z,996.51
2017-11-23T06:25:15.081Z,996.48
2017-11-23T06:26:25.158Z,996.54
2017-11-23T06:27:35.247Z,996.52
2017-11-23T06:28:45.332Z,996.51
2017-11-23T06:29:55.139Z,996.53
2017-11-23T06:31:04.947Z,996.55
2017-11-23T06:32:14.762Z,996.58
2017-11-23T06:33:24.596Z,996.62
2017-11-23T06:34:34.838Z,996.64
2017-11-23T06:35:44.912Z,996.69
2017-11-23T06:36:54.983Z,996.7
2017-11-23T06:38:04.265Z,996.71
2017-11-23T06:39:14.363Z,996.77
2017-11-23T06:40:24.425Z,996.78
2017-11-23T06:41:34.533Z,996.79
2017-11-23T06:42:44.322Z,996.79
2017-11-23T06:43:54.398Z,996.81
2017-11-23T06:45:03.942Z,996.83
2017-11-23T06:46:13.809Z,996.83
2017-11-23T06:47:23.920Z,996.87
2017-11-23T06:48:33.735Z,996.85
2017-11-23T06:49:43.536Z,996.9
2017-11-23T06:50:53.614Z,996.9
2017-11-23T06:52:03.485Z,996.85
2017-11-23T06:53:13.284Z,996.89
2017-11-23T06:54:23.099Z,996.9
2017-11-23T06:55:32.917Z,996.84
2017-11-23T06:56:43.006Z,996.88
2017-11-23T06:57:53.139Z,996.84
2017-11-23T06:59:03.218Z,996.84
2017-11-23T07:00:13.299Z,996.87
2017-11-23T07:01:23.119Z,996.92
2017-11-23T07:02:33.201Z,996.9
2017-11-23T07:03:43.039Z,996.88
2017-11-23T07:04:53.112Z,996.88
2017-11-23T07:06:02.943Z,996.83
2017-11-23T07:07:13.009Z,996.86
2017-11-23T07:08:22.818Z,996.87
2017-11-23T07:09:32.624Z,996.83
2017-11-23T07:10:42.429Z,996.85
2017-11-23T07:11:52.235Z,996.86
2017-11-23T07:13:02.322Z,996.84
2017-11-23T07:14:11.887Z,996.81
2017-11-23T07:15:22.042Z,996.79
2017-11-23T07:16:31.853Z,996.76
2017-11-23T07:17:41.655Z,996.81
2017-11-23T07:18:51.494Z,996.79
2017-11-23T07:20:01.303Z,996.79
2017-11-23T07:21:11.102Z,996.75
2017-11-23T07:22:20.932Z,996.74
2017-11-23T07:23:31.011Z,996.78
2017-11-23T07:24:40.553Z,996.75
2017-11-23T07:25:50.388Z,996.79
2017-11-23T07:27:00.219Z,996.79
2017-11-23T07:28:10.297Z,996.82
2017-11-23T07:29:20.114Z,996.84
2017-11-23T07:30:30.177Z,996.87
2017-11-23T07:31:39.725Z,996.94
2017-11-23T07:32:49.832Z,996.91
2017-11-23T07:33:59.913Z,996.94
2017-11-23T07:35:09.990Z,996.97
2017-11-23T07:36:20.150Z,996.99
2017-11-23T07:37:30.257Z,996.99
2017-11-23T07:38:40.310Z,996.98
2017-11-23T07:39:49.330Z,996.98
2017-11-23T07:40:59.418Z,997.03
2017-11-23T07:42:09.280Z,996.99
2017-11-23T07:43:19.071Z,997
2017-11-23T07:44:29.199Z,997.03
2017-11-23T07:45:39.018Z,997.05
2017-11-23T07:46:48.294Z,997.08
2017-11-23T07:47:58.354Z,997.05
2017-11-23T07:49:08.446Z,997.05
2017-11-23T07:50:18.597Z,997.05
2017-11-23T07:51:28.676Z,997.1
2017-11-23T07:52:38.471Z,997.17
2017-11-23T07:53:48.564Z,997.16
2017-11-23T07:54:58.382Z,997.17
2017-11-23T07:56:08.247Z,997.2
2017-11-23T07:57:18.056Z,997.2
2017-11-23T07:58:27.858Z,997.21
2017-11-23T07:59:37.923Z,997.26
2017-11-23T08:00:48.426Z,997.28
2017-11-23T08:01:58.491Z,997.24
2017-11-23T08:03:08.591Z,997.23
2017-11-23T08:04:18.695Z,997.25
2017-11-23T08:05:28.241Z,997.22
2017-11-23T08:06:37.799Z,997.25
2017-11-23T08:07:48.924Z,997.2
2017-11-23T08:08:59.009Z,997.15
2017-11-23T08:10:08.828Z,997.15
2017-11-23T08:11:18.910Z,997.07
2017-11-23T08:12:28.456Z,997.06
2017-11-23T08:13:38.573Z,997.01
2017-11-23T08:14:48.132Z,997.06
2017-11-23T08:15:57.943Z,997.1
2017-11-23T08:17:08.014Z,997.02
2017-11-23T08:18:18.090Z,997.01
2017-11-23T08:19:28.241Z,997.01
2017-11-23T08:20:38.059Z,996.99
2017-11-23T08:21:48.136Z,996.98
2017-11-23T08:22:57.927Z,996.95
2017-11-23T08:24:07.748Z,996.97
2017-11-23T08:25:17.351Z,996.98
2017-11-23T08:26:27.155Z,997.02
2017-11-23T08:27:37.600Z,996.95
2017-11-23T08:28:47.166Z,997.03
2017-11-23T08:29:57.239Z,996.97
2017-11-23T08:31:06.880Z,997.01
2017-11-23T08:32:16.691Z,997.02
2017-11-23T08:33:26.508Z,997.02
2017-11-23T08:34:36.309Z,997.02
2017-11-23T08:35:46.390Z,997.01
2017-11-23T08:36:56.199Z,996.98
2017-11-23T08:38:05.476Z,996.98
2017-11-23T08:39:15.021Z,997.02
2017-11-23T08:40:24.548Z,997.05
2017-11-23T08:41:34.612Z,996.98
2017-11-23T08:42:44.479Z,996.99
2017-11-23T08:43:54.595Z,996.95
2017-11-23T08:45:04.720Z,996.95
2017-11-23T08:46:14.581Z,996.92
2017-11-23T08:47:24.419Z,996.97
2017-11-23T08:48:34.493Z,996.96
2017-11-23T08:49:44.574Z,996.92
2017-11-23T08:50:54.388Z,996.9
2017-11-23T08:52:04.457Z,996.91
2017-11-23T08:53:14.269Z,996.93
2017-11-23T08:54:24.354Z,996.97
2017-11-23T08:55:34.446Z,997
2017-11-23T08:56:44.535Z,997
2017-11-23T08:57:54.716Z,996.99
2017-11-23T08:59:05.578Z,996.98
2017-11-23T09:00:15.380Z,997.01
2017-11-23T09:01:25.468Z,997.08
2017-11-23T09:02:35.028Z,997.13
2017-11-23T09:03:45.139Z,997.18
2017-11-23T09:04:54.997Z,997.21
2017-11-23T09:06:04.859Z,997.23
2017-11-23T09:07:14.675Z,997.27
2017-11-23T09:08:24.500Z,997.22
2017-11-23T09:09:34.587Z,997.21
2017-11-23T09:10:44.702Z,997.24
2017-11-23T09:11:54.818Z,997.25
2017-11-23T09:13:04.641Z,997.27
2017-11-23T09:14:14.726Z,997.26
2017-11-23T09:15:24.812Z,997.27
2017-11-23T09:16:35.535Z,997.26
2017-11-23T09:17:45.685Z,997.31
2017-11-23T09:18:55.247Z,997.25
2017-11-23T09:20:05.053Z,997.26
2017-11-23T09:21:15.134Z,997.26
2017-11-23T09:22:24.700Z,997.25
2017-11-23T09:23:34.602Z,997.26
2017-11-23T09:24:44.711Z,997.26
2017-11-23T09:25:54.536Z,997.29
2017-11-23T09:27:04.396Z,997.21
2017-11-23T09:28:14.473Z,997.22
2017-11-23T09:29:24.623Z,997.17
2017-11-23T09:30:34.448Z,997.18
2017-11-23T09:31:44.273Z,997.21
2017-11-23T09:32:54.379Z,997.22
2017-11-23T09:34:04.469Z,997.16
2017-11-23T09:35:14.559Z,997.17
2017-11-23T09:36:24.694Z,997.15
2017-11-23T09:37:34.510Z,997.15
2017-11-23T09:38:44.334Z,997.19
2017-11-23T09:39:54.398Z,997.19
2017-11-23T09:41:04.564Z,997.19
2017-11-23T09:42:14.411Z,997.19
2017-11-23T09:43:24.241Z,997.18
2017-11-23T09:44:34.329Z,997.15
2017-11-23T09:45:44.128Z,997.12
2017-11-23T09:46:53.758Z,997.12
2017-11-23T09:48:03.860Z,997.09
2017-11-23T09:49:13.951Z,997.1
2017-11-23T09:50:24.040Z,997.06
2017-11-23T09:51:33.586Z,997.1
2017-11-23T09:52:43.729Z,997.07
2017-11-23T09:53:53.817Z,997.02
2017-11-23T09:55:03.917Z,996.98
2017-11-23T09:56:14.059Z,996.98
2017-11-23T09:57:23.898Z,996.96
2017-11-23T09:58:33.783Z,997.03
2017-11-23T09:59:43.592Z,997.01
2017-11-23T10:00:53.675Z,997.01
2017-11-23T10:02:03.756Z,997.03
2017-11-23T10:03:13.844Z,997.05
2017-11-23T10:04:24.029Z,997.06
2017-11-23T10:05:34.109Z,997.07
2017-11-23T10:06:44.174Z,997.11
2017-11-23T10:07:53.998Z,997.09
2017-11-23T10:09:04.094Z,997.13
2017-11-23T10:10:13.957Z,997.09
2017-11-23T10:11:24.066Z,997.08
2017-11-23T10:12:33.648Z,997.05
2017-11-23T10:13:43.474Z,997.07
2017-11-23T10:14:53.303Z,997.06
2017-11-23T10:16:03.376Z,997.02
2017-11-23T10:17:13.485Z,996.98
2017-11-23T10:18:23.608Z,997
2017-11-23T10:19:33.151Z,996.99
2017-11-23T10:20:42.696Z,997.02
2017-11-23T10:21:52.523Z,997.02
2017-11-23T10:23:02.341Z,997.04
2017-11-23T10:24:11.890Z,997.07
2017-11-23T10:25:21.715Z,997.12
2017-11-23T10:26:31.513Z,997.12
2017-11-23T10:27:41.363Z,997.15
2017-11-23T10:28:51.453Z,997.14
2017-11-23T10:30:01.533Z,997.18
2017-11-23T10:31:11.652Z,997.2
2017-11-23T10:32:21.750Z,997.19
2017-11-23T10:33:31.582Z,997.21
2017-11-23T10:34:41.385Z,997.22
2017-11-23T10:35:51.214Z,997.22
2017-11-23T10:37:01.304Z,997.23
2017-11-23T10:38:12.123Z,997.23
2017-11-23T10:39:22.290Z,997.24
2017-11-23T10:40:32.388Z,997.25
2017-11-23T10:41:41.680Z,997.21
2017-11-23T10:42:51.220Z,997.28
2017-11-23T10:44:01.050Z,997.25
2017-11-23T10:45:11.210Z,997.29
2017-11-23T10:46:21.305Z,997.29
2017-11-23T10:47:31.142Z,997.28
2017-11-23T10:48:40.968Z,997.3
2017-11-23T10:49:51.065Z,997.25
2017-11-23T10:51:01.231Z,997.3
2017-11-23T10:52:11.305Z,997.26
2017-11-23T10:53:21.383Z,997.26
2017-11-23T10:54:31.480Z,997.24
2017-11-23T10:55:41.570Z,997.3
2017-11-23T10:56:51.137Z,997.28
2017-11-23T10:58:00.701Z,997.28
2017-11-23T10:59:10.792Z,997.25
2017-11-23T11:00:20.886Z,997.2
2017-11-23T11:01:30.697Z,997.21
2017-11-23T11:02:40.768Z,997.22
2017-11-23T11:03:50.888Z,997.22
2017-11-23T11:05:00.711Z,997.25
2017-11-23T11:06:10.521Z,997.24
2017-11-23T11:07:20.087Z,997.26
2017-11-23T11:08:29.924Z,997.26
2017-11-23T11:09:40.039Z,997.27
2017-11-23T11:10:50.120Z,997.34
2017-11-23T11:12:00.212Z,997.31
2017-11-23T11:13:10.034Z,997.35
2017-11-23T11:14:20.158Z,997.31
2017-11-23T11:15:29.979Z,997.34
2017-11-23T11:16:40.070Z,997.33
2017-11-23T11:17:50.182Z,997.38
2017-11-23T11:19:00.019Z,997.38
2017-11-23T11:20:09.873Z,997.41
2017-11-23T11:21:19.733Z,997.42
2017-11-23T11:22:29.542Z,997.42
2017-11-23T11:23:39.105Z,997.45
2017-11-23T11:24:49.256Z,997.43
2017-11-23T11:25:59.323Z,997.45
2017-11-23T11:27:09.431Z,997.47
2017-11-23T11:28:19.506Z,997.46
2017-11-23T11:29:29.320Z,997.45
2017-11-23T11:30:39.425Z,997.5
2017-11-23T11:31:49.502Z,997.48
2017-11-23T11:32:59.347Z,997.53
2017-11-23T11:34:09.181Z,997.58
2017-11-23T11:35:19.284Z,997.59
2017-11-23T11:36:29.109Z,997.6
2017-11-23T11:37:39.193Z,997.54
2017-11-23T11:38:49.042Z,997.55
2017-11-23T11:39:58.884Z,997.55
2017-11-23T11:41:08.965Z,997.54
2017-11-23T11:42:19.110Z,997.53
2017-11-23T11:43:29.001Z,997.54
2017-11-23T11:44:39.104Z,997.53
2017-11-23T11:45:48.929Z,997.62
2017-11-23T11:46:59.013Z,997.55
2017-11-23T11:48:08.856Z,997.57
2017-11-23T11:49:18.986Z,997.61
2017-11-23T11:50:29.075Z,997.61
2017-11-23T11:51:38.655Z,997.68
2017-11-23T11:52:48.480Z,997.71
2017-11-23T11:53:58.559Z,997.75
2017-11-23T11:55:08.691Z,997.74
2017-11-23T11:56:18.798Z,997.82
2017-11-23T11:57:28.600Z,997.81
2017-11-23T11:58:38.683Z,997.81
2017-11-23T11:59:48.496Z,997.85
2017-11-23T12:00:58.101Z,997.83
2017-11-23T12:02:08.181Z,997.82
2017-11-23T12:03:18.000Z,997.92
2017-11-23T12:04:27.553Z,997.95
2017-11-23T12:05:37.642Z,997.98
2017-11-23T12:06:47.786Z,998
2017-11-23T12:07:57.868Z,997.99
2017-11-23T12:09:07.689Z,997.99
2017-11-23T12:10:17.245Z,998.01
2017-11-23T12:11:27.326Z,998.03
2017-11-23T12:12:37.472Z,998.03
2017-11-23T12:13:47.556Z,998.07
2017-11-23T12:14:57.386Z,998.1
2017-11-23T12:16:07.493Z,998.11
2017-11-23T12:17:17.351Z,998.12
2017-11-23T12:18:27.442Z,998.15
2017-11-23T12:19:37.280Z,998.19
2017-11-23T12:20:47.102Z,998.22
2017-11-23T12:21:57.183Z,998.22
2017-11-23T12:23:07.041Z,998.24
2017-11-23T12:24:16.869Z,998.18
2017-11-23T12:25:26.955Z,998.17
2017-11-23T12:26:36.772Z,998.2
2017-11-23T12:27:46.845Z,998.19
2017-11-23T12:28:56.940Z,998.18
2017-11-23T12:30:06.824Z,998.15
2017-11-23T12:31:16.709Z,998.16
2017-11-23T12:32:26.810Z,998.12
2017-11-23T12:33:36.891Z,998.14
2017-11-23T12:34:47.003Z,998.17
2017-11-23T12:35:57.157Z,998.19
2017-11-23T12:37:06.985Z,998.17
2017-11-23T12:38:17.069Z,998.16
2017-11-23T12:39:27.160Z,998.17
2017-11-23T12:40:37.272Z,998.16
2017-11-23T12:41:47.427Z,998.16
2017-11-23T12:42:56.964Z,998.14
2017-11-23T12:44:07.038Z,998.16
2017-11-23T12:45:16.867Z,998.17
2017-11-23T12:46:26.712Z,998.16
2017-11-23T12:47:36.588Z,998.16
2017-11-23T12:48:46.407Z,998.16
2017-11-23T12:49:57.539Z,998.13
2017-11-23T12:51:07.643Z,998.1
2017-11-23T12:52:17.731Z,998.11
2017-11-23T12:53:27.615Z,998.14
2017-11-23T12:54:37.447Z,998.18
2017-11-23T12:55:47.536Z,998.18
2017-11-23T12:56:57.616Z,998.21
2017-11-23T12:58:07.423Z,998.2
2017-11-23T12:59:16.996Z,998.23
2017-11-23T13:00:27.094Z,998.23
2017-11-23T13:01:36.924Z,998.26
2017-11-23T13:02:46.755Z,998.29
2017-11-23T13:03:56.844Z,998.25
2017-11-23T13:05:06.988Z,998.28
2017-11-23T13:06:16.844Z,998.31
2017-11-23T13:07:26.956Z,998.33
2017-11-23T13:08:36.517Z,998.31
2017-11-23T13:09:46.605Z,998.28
2017-11-23T13:10:56.781Z,998.31
2017-11-23T13:12:06.863Z,998.3
2017-11-23T13:13:16.709Z,998.32
2017-11-23T13:14:26.818Z,998.3
2017-11-23T13:15:36.886Z,998.31
2017-11-23T13:16:46.717Z,998.31
2017-11-23T13:17:56.804Z,998.32
2017-11-23T13:19:06.363Z,998.33
2017-11-23T13:20:16.447Z,998.29
2017-11-23T13:21:26.534Z,998.3
2017-11-23T13:22:36.395Z,998.31
2017-11-23T13:23:45.967Z,998.25
2017-11-23T13:24:56.030Z,998.18
2017-11-23T13:26:05.861Z,998.19
2017-11-23T13:27:15.931Z,998.2
2017-11-23T13:28:26.017Z,998.25
2017-11-23T13:29:37.189Z,998.18
2017-11-23T13:30:47.269Z,998.18
2017-11-23T13:31:57.075Z,998.14
2017-11-23T13:33:07.175Z,998.12
2017-11-23T13:34:17.233Z,998.13
2017-11-23T13:35:27.149Z,998.13
2017-11-23T13:36:37.266Z,998.16
2017-11-23T13:37:47.361Z,998.12
2017-11-23T13:38:57.464Z,998.1
2017-11-23T13:40:06.749Z,998.07
2017-11-23T13:41:16.914Z,998.07
2017-11-23T13:42:26.193Z,998.08
2017-11-23T13:43:35.744Z,998.08
2017-11-23T13:44:45.306Z,998.08
2017-11-23T13:45:55.128Z,998.1
2017-11-23T13:47:05.277Z,998.08
2017-11-23T13:48:15.371Z,998.08
2017-11-23T13:49:25.480Z,998.12
2017-11-23T13:50:35.299Z,998.13
2017-11-23T13:51:45.434Z,998.12
2017-11-23T13:52:55.289Z,998.17
2017-11-23T13:54:05.124Z,998.17
2017-11-23T13:55:15.198Z,998.17
2017-11-23T13:56:25.318Z,998.13
2017-11-23T13:57:35.139Z,998.14
2017-11-23T13:58:45.294Z,998.14
2017-11-23T13:59:55.390Z,998.19
2017-11-23T14:01:05.483Z,998.19
2017-11-23T14:02:15.038Z,998.15
2017-11-23T14:03:25.143Z,998.17
2017-11-23T14:04:35.816Z,998.22
2017-11-23T14:05:45.644Z,998.24
2017-11-23T14:06:55.751Z,998.31
2017-11-23T14:08:05.565Z,998.27
2017-11-23T14:09:15.673Z,998.26
2017-11-23T14:10:25.547Z,998.31
2017-11-23T14:11:35.109Z,998.3
2017-11-23T14:12:44.934Z,998.32
2017-11-23T14:13:54.792Z,998.31
2017-11-23T14:15:04.633Z,998.31
2017-11-23T14:16:14.756Z,998.3
2017-11-23T14:17:24.588Z,998.32
2017-11-23T14:18:34.429Z,998.34
2017-11-23T14:19:44.527Z,998.42
2017-11-23T14:20:54.648Z,998.4
2017-11-23T14:22:04.519Z,998.44
2017-11-23T14:23:14.618Z,998.51
2017-11-23T14:24:24.714Z,998.51
2017-11-23T14:25:34.561Z,998.51
2017-11-23T14:26:44.635Z,998.48
2017-11-23T14:27:54.734Z,998.5
2017-11-23T14:29:04.829Z,998.52
2017-11-23T14:30:14.644Z,998.5
2017-11-23T14:31:24.477Z,998.58
2017-11-23T14:32:34.295Z,998.56
2017-11-23T14:33:44.102Z,998.54
2017-11-23T14:34:54.184Z,998.52
2017-11-23T14:36:03.756Z,998.52
2017-11-23T14:37:13.584Z,998.48
2017-11-23T14:38:23.690Z,998.5
2017-11-23T14:39:33.567Z,998.54
2017-11-23T14:40:43.701Z,998.53
2017-11-23T14:41:53.795Z,998.54
2017-11-23T14:43:03.897Z,998.57
2017-11-23T14:44:14.006Z,998.59
2017-11-23T14:45:24.201Z,998.6
2017-11-23T14:46:34.040Z,998.58
2017-11-23T14:47:44.135Z,998.59
2017-11-23T14:48:53.940Z,998.58
2017-11-23T14:50:03.767Z,998.59
2017-11-23T14:51:13.913Z,998.59
2017-11-23T14:52:23.994Z,998.64
2017-11-23T14:53:33.810Z,998.62
2017-11-23T14:54:43.910Z,998.6
2017-11-23T14:55:53.728Z,998.62
2017-11-23T14:57:03.892Z,998.65
2017-11-23T14:58:13.722Z,998.65
2017-11-23T14:59:23.809Z,998.65
2017-11-23T15:00:35.159Z,998.69
2017-11-23T15:01:45.274Z,998.74
2017-11-23T15:02:55.396Z,998.71
2017-11-23T15:04:05.559Z,998.72
2017-11-23T15:05:15.644Z,998.74
2017-11-23T15:06:25.487Z,998.73